Time;durP1;ratioP1;P1;durP2;ratioP2;P2;SDS_P1;SDS_P2;PMS_P1;PMS_P2;Temp;Humidity;BMP_temperature;BMP_pressure;BME280_temperature;BME280_humidity;BME280_pressure;Samples;Min_cycle;Max_cycle;Signal;HPM_P1;HPM_P2
2023/08/13 00:01:51;;;;;;;9.27;3.97;;;21.00;98.00;;;;;;4070010;29;20052;-61
2023/08/13 00:03:53;;;;;;;11.10;3.42;;;21.00;97.70;;;;;;4069423;29;20144;-62
2023/08/13 00:05:56;;;;;;;7.47;2.67;;;21.00;98.00;;;;;;4069959;29;20052;-61
2023/08/13 00:07:58;;;;;;;10.77;3.75;;;20.90;98.60;;;;;;4070097;29;20048;-62
2023/08/13 00:10:00;;;;;;;9.10;3.38;;;20.90;98.60;;;;;;4069297;29;20483;-62
2023/08/13 00:12:03;;;;;;;7.22;2.63;;;20.90;98.50;;;;;;4069653;29;20052;-62
2023/08/13 00:14:05;;;;;;;12.07;3.58;;;20.90;98.20;;;;;;4067737;29;20059;-61
2023/08/13 00:16:08;;;;;;;10.55;3.35;;;20.90;98.70;;;;;;4069659;29;20048;-62
2023/08/13 00:18:11;;;;;;;11.95;3.70;;;20.90;98.40;;;;;;4069291;29;20083;-62
2023/08/13 00:20:13;;;;;;;8.88;3.55;;;20.90;98.40;;;;;;4069862;29;20108;-61
2023/08/13 00:22:16;;;;;;;10.05;3.20;;;20.90;98.30;;;;;;4068409;29;20056;-61
2023/08/13 00:24:18;;;;;;;9.65;3.17;;;20.90;98.10;;;;;;4068814;29;20048;-61
2023/08/13 00:26:20;;;;;;;12.07;3.25;;;20.90;98.30;;;;;;4068595;29;20072;-62
2023/08/13 00:28:22;;;;;;;11.90;3.20;;;20.90;98.70;;;;;;4069952;29;20076;-63
2023/08/13 00:30:24;;;;;;;11.20;3.00;;;20.90;99.00;;;;;;4069709;29;20450;-61
2023/08/13 00:32:26;;;;;;;11.07;3.30;;;20.80;98.50;;;;;;4069774;29;20071;-60
2023/08/13 00:34:30;;;;;;;9.88;2.92;;;20.80;98.80;;;;;;4068711;29;20129;-63
2023/08/13 00:36:32;;;;;;;16.92;3.63;;;20.70;98.70;;;;;;4069524;29;20056;-63
2023/08/13 00:38:34;;;;;;;13.82;3.20;;;20.80;99.40;;;;;;4068986;29;20120;-63
2023/08/13 00:40:37;;;;;;;10.30;3.25;;;20.80;98.40;;;;;;4069546;29;20482;-66
2023/08/13 00:42:39;;;;;;;8.93;3.05;;;20.70;99.00;;;;;;4069298;29;20183;-63
2023/08/13 00:44:41;;;;;;;8.00;3.33;;;20.80;98.70;;;;;;4068814;29;20058;-64
2023/08/13 00:46:43;;;;;;;10.80;3.10;;;20.70;98.50;;;;;;4069548;29;20048;-63
2023/08/13 00:48:46;;;;;;;11.98;3.47;;;20.80;99.20;;;;;;4069465;29;20048;-61
2023/08/13 00:50:50;;;;;;;8.30;2.97;;;20.70;98.60;;;;;;4069581;29;20059;-62
2023/08/13 00:52:52;;;;;;;9.88;2.90;;;20.70;98.90;;;;;;4069374;29;20056;-61
2023/08/13 00:54:55;;;;;;;10.63;2.97;;;20.70;98.70;;;;;;4068367;29;20406;-62
2023/08/13 00:56:57;;;;;;;11.82;3.25;;;20.70;98.80;;;;;;4069148;29;20048;-62
2023/08/13 00:58:59;;;;;;;9.02;3.22;;;20.70;99.20;;;;;;4069051;29;20056;-62
2023/08/13 01:01:01;;;;;;;9.27;3.00;;;20.70;98.90;;;;;;4069233;29;20475;-62
2023/08/13 01:03:04;;;;;;;15.10;3.40;;;20.70;98.50;;;;;;4069934;29;20079;-63
2023/08/13 01:05:06;;;;;;;10.02;3.05;;;20.60;98.50;;;;;;4068971;29;20055;-61
2023/08/13 01:07:20;;;;;;;9.00;2.90;;;20.70;98.40;;;;;;4069365;29;20115;-60
2023/08/13 01:09:28;;;;;;;6.55;2.50;;;20.70;98.70;;;;;;4067876;29;20466;-61
2023/08/13 01:11:41;;;;;;;13.77;3.42;;;20.70;99.30;;;;;;4069173;29;20518;-62
2023/08/13 01:13:46;;;;;;;16.27;3.58;;;20.70;98.90;;;;;;4069190;29;20055;-61
2023/08/13 01:15:51;;;;;;;10.73;3.08;;;20.60;98.10;;;;;;4068369;29;20052;-60
2023/08/13 01:18:00;;;;;;;9.77;3.00;;;20.60;98.60;;;;;;4068724;29;20150;-61
2023/08/13 01:20:08;;;;;;;10.30;3.30;;;20.60;98.50;;;;;;4068833;29;20406;-62
2023/08/13 01:22:22;;;;;;;13.48;3.75;;;20.60;98.80;;;;;;4068111;29;20099;-61
2023/08/13 01:24:24;;;;;;;16.48;3.72;;;20.60;99.00;;;;;;4068026;29;20071;-61
2023/08/13 01:26:30;;;;;;;13.50;3.40;;;20.60;99.10;;;;;;4068595;29;20136;-60
2023/08/13 01:28:36;;;;;;;17.77;3.47;;;20.60;99.00;;;;;;4067671;29;20083;-61
2023/08/13 01:30:44;;;;;;;10.05;2.90;;;20.60;98.70;;;;;;4068602;29;20048;-62
2023/08/13 01:32:49;;;;;;;9.90;2.72;;;20.50;99.00;;;;;;4068386;29;20052;-64
2023/08/13 01:34:57;;;;;;;13.27;3.67;;;20.50;98.80;;;;;;4067735;29;20048;-63
2023/08/13 01:36:59;;;;;;;17.58;3.38;;;20.50;98.70;;;;;;4068658;29;20051;-62
2023/08/13 01:39:05;;;;;;;9.18;3.30;;;20.40;98.70;;;;;;4068599;29;20055;-61
2023/08/13 01:41:07;;;;;;;12.07;3.25;;;20.50;99.00;;;;;;4068516;29;20466;-62
2023/08/13 01:43:09;;;;;;;11.02;3.22;;;20.40;99.20;;;;;;4068781;29;20052;-62
2023/08/13 01:45:11;;;;;;;12.50;3.72;;;20.40;99.00;;;;;;4068033;29;20052;-62
2023/08/13 01:47:13;;;;;;;11.18;3.75;;;20.40;99.20;;;;;;4068699;29;20050;-62
2023/08/13 01:49:15;;;;;;;16.55;4.78;;;20.30;99.60;;;;;;4068851;29;20076;-61
2023/08/13 01:51:17;;;;;;;14.80;4.90;;;20.30;99.30;;;;;;4068201;29;20135;-61
2023/08/13 01:53:19;;;;;;;10.32;3.95;;;20.40;99.40;;;;;;4068484;29;20048;-61
2023/08/13 01:55:23;;;;;;;13.30;3.15;;;20.30;99.40;;;;;;4067730;29;20056;-62
2023/08/13 01:57:30;;;;;;;8.65;2.53;;;20.30;99.20;;;;;;4068131;29;20044;-61
2023/08/13 01:59:32;;;;;;;9.02;2.95;;;20.20;99.30;;;;;;4068156;29;20091;-62
2023/08/13 02:01:34;;;;;;;10.68;3.22;;;20.30;99.80;;;;;;4068398;29;20052;-63
2023/08/13 02:03:36;;;;;;;18.08;3.20;;;20.20;99.50;;;;;;4068400;29;20063;-62
2023/08/13 02:05:38;;;;;;;12.48;3.40;;;20.20;99.60;;;;;;4066149;29;20087;-63
2023/08/13 02:07:40;;;;;;;15.82;3.45;;;20.20;99.60;;;;;;4068529;29;20527;-62
2023/08/13 02:09:42;;;;;;;9.95;2.78;;;20.20;99.20;;;;;;4068628;29;20048;-62
2023/08/13 02:11:46;;;;;;;15.65;3.28;;;20.20;99.40;;;;;;4068120;29;20060;-63
2023/08/13 02:13:49;;;;;;;9.75;2.92;;;20.20;99.40;;;;;;4068459;29;20064;-62
2023/08/13 02:15:51;;;;;;;14.82;3.65;;;20.20;99.90;;;;;;4067462;29;20056;-62
2023/08/13 02:17:53;;;;;;;12.90;3.53;;;20.20;99.60;;;;;;4068360;29;20052;-62
2023/08/13 02:19:55;;;;;;;7.38;2.60;;;20.10;99.90;;;;;;4068182;29;20047;-63
2023/08/13 02:21:57;;;;;;;13.15;3.00;;;20.10;99.70;;;;;;4067645;29;20474;-60
2023/08/13 02:23:59;;;;;;;10.88;3.30;;;20.10;99.90;;;;;;4067932;29;20126;-63
2023/08/13 02:26:01;;;;;;;18.92;3.75;;;20.00;99.40;;;;;;4067204;29;20132;-63
2023/08/13 02:28:05;;;;;;;17.02;3.50;;;20.00;99.90;;;;;;4068011;29;20056;-62
2023/08/13 02:30:09;;;;;;;14.80;3.38;;;20.10;99.90;;;;;;4068290;29;20052;-62
2023/08/13 02:32:11;;;;;;;17.27;3.63;;;20.00;99.90;;;;;;4068134;29;20053;-63
2023/08/13 02:34:14;;;;;;;18.10;3.58;;;20.00;99.90;;;;;;4067601;29;20050;-63
2023/08/13 02:36:16;;;;;;;16.63;3.08;;;20.00;99.70;;;;;;4067105;29;20104;-63
2023/08/13 02:38:18;;;;;;;13.43;3.30;;;20.00;99.90;;;;;;4067851;29;20044;-63
2023/08/13 02:40:20;;;;;;;10.20;3.05;;;20.00;99.90;;;;;;4069116;29;20051;-62
2023/08/13 02:42:22;;;;;;;10.07;3.58;;;20.00;99.70;;;;;;4069817;29;20056;-64
2023/08/13 02:44:26;;;;;;;11.50;3.30;;;20.00;99.90;;;;;;4070624;29;20055;-61
2023/08/13 02:46:28;;;;;;;12.48;3.63;;;19.90;99.90;;;;;;4071495;29;20076;-60
2023/08/13 02:48:30;;;;;;;9.95;3.08;;;20.00;99.90;;;;;;4071358;29;20071;-61
2023/08/13 02:50:33;;;;;;;11.15;3.42;;;20.00;99.90;;;;;;4070818;29;20056;-62
2023/08/13 02:52:35;;;;;;;9.63;3.58;;;19.90;99.80;;;;;;4070851;29;20076;-61
2023/08/13 02:54:37;;;;;;;9.70;2.92;;;19.90;99.60;;;;;;4070446;29;20376;-60
2023/08/13 02:56:41;;;;;;;14.38;3.92;;;19.90;99.90;;;;;;4070950;29;20048;-61
2023/08/13 02:58:43;;;;;;;12.90;2.95;;;19.90;99.90;;;;;;4071093;29;20086;-60
2023/08/13 03:00:47;;;;;;;9.85;2.50;;;19.80;99.90;;;;;;4071418;29;20657;-61
2023/08/13 03:02:49;;;;;;;8.80;3.05;;;19.80;99.90;;;;;;4071120;29;20048;-61
2023/08/13 03:04:51;;;;;;;10.57;2.90;;;19.80;99.90;;;;;;4070013;29;20048;-60
2023/08/13 03:06:53;;;;;;;11.30;2.65;;;19.80;99.90;;;;;;4071054;29;20068;-61
2023/08/13 03:08:55;;;;;;;12.35;3.10;;;19.80;99.90;;;;;;4070030;29;20127;-61
2023/08/13 03:10:58;;;;;;;14.68;3.47;;;19.80;99.90;;;;;;4070977;29;20082;-62
2023/08/13 03:13:00;;;;;;;12.32;3.50;;;19.80;99.90;;;;;;4070776;29;20044;-62
2023/08/13 03:15:02;;;;;;;16.17;3.05;;;19.80;99.90;;;;;;4070548;29;20051;-62
2023/08/13 03:17:06;;;;;;;13.35;3.17;;;19.80;99.90;;;;;;4070737;29;20055;-61
2023/08/13 03:19:08;;;;;;;18.45;3.83;;;19.70;99.90;;;;;;4070093;29;20044;-62
2023/08/13 03:21:10;;;;;;;10.68;2.85;;;19.70;99.90;;;;;;4070897;29;20131;-63
2023/08/13 03:23:12;;;;;;;12.55;3.55;;;19.70;99.90;;;;;;4070505;29;20086;-61
2023/08/13 03:25:14;;;;;;;17.30;3.90;;;19.70;99.90;;;;;;4069974;29;20048;-61
2023/08/13 03:27:16;;;;;;;10.00;3.10;;;19.70;99.90;;;;;;4070379;29;20561;-61
2023/08/13 03:29:18;;;;;;;11.77;3.72;;;19.70;99.90;;;;;;4070405;29;20048;-61
2023/08/13 03:31:21;;;;;;;11.20;3.53;;;19.70;99.90;;;;;;4070502;29;20495;-61
2023/08/13 03:33:24;;;;;;;12.57;3.33;;;19.70;99.90;;;;;;4069199;29;20056;-60
2023/08/13 03:35:26;;;;;;;12.23;3.10;;;19.60;99.90;;;;;;4068400;29;20078;-60
2023/08/13 03:37:28;;;;;;;16.60;3.13;;;19.60;99.90;;;;;;4070325;29;20048;-61
2023/08/13 03:39:30;;;;;;;12.52;2.60;;;19.60;99.90;;;;;;4070072;29;20087;-61
2023/08/13 03:41:32;;;;;;;9.98;2.60;;;19.60;99.90;;;;;;4070324;29;20048;-63
2023/08/13 03:43:34;;;;;;;14.55;3.53;;;19.70;99.90;;;;;;4070439;29;20059;-63
2023/08/13 03:45:36;;;;;;;13.38;3.20;;;19.60;99.90;;;;;;4069415;29;20055;-63
2023/08/13 03:47:39;;;;;;;11.93;3.15;;;19.60;99.90;;;;;;4069772;29;20056;-63
2023/08/13 03:49:42;;;;;;;14.35;3.10;;;19.50;99.90;;;;;;4068677;29;20570;-61
2023/08/13 03:51:44;;;;;;;12.90;3.15;;;19.50;99.90;;;;;;4069213;29;20062;-61
2023/08/13 03:53:46;;;;;;;11.05;2.88;;;19.50;99.90;;;;;;4069890;29;20384;-61
2023/08/13 03:55:48;;;;;;;13.30;3.22;;;19.50;99.90;;;;;;4069226;29;20048;-61
2023/08/13 03:57:52;;;;;;;11.75;3.95;;;19.50;99.90;;;;;;4069829;29;20462;-63
2023/08/13 03:59:54;;;;;;;13.02;3.83;;;19.50;99.90;;;;;;4070048;29;20076;-63
2023/08/13 04:01:57;;;;;;;12.23;3.65;;;19.50;99.90;;;;;;4069492;29;20058;-63
2023/08/13 04:03:59;;;;;;;11.15;2.97;;;19.50;99.90;;;;;;4069844;29;20048;-60
2023/08/13 04:06:03;;;;;;;11.80;3.17;;;19.40;99.90;;;;;;4069093;29;20104;-60
2023/08/13 04:08:06;;;;;;;15.02;3.85;;;19.40;99.90;;;;;;4069484;29;20068;-60
2023/08/13 04:10:08;;;;;;;11.60;3.10;;;19.40;99.90;;;;;;4069644;29;20058;-60
2023/08/13 04:12:10;;;;;;;11.63;3.45;;;19.40;99.90;;;;;;4069950;29;20123;-61
2023/08/13 04:14:13;;;;;;;15.00;3.25;;;19.30;99.90;;;;;;4069347;29;20189;-61
2023/08/13 04:16:15;;;;;;;18.30;3.65;;;19.40;99.90;;;;;;4068650;29;20060;-61
2023/08/13 04:18:17;;;;;;;12.18;3.70;;;19.40;99.90;;;;;;4069682;29;20103;-61
2023/08/13 04:20:20;;;;;;;13.10;4.13;;;19.30;99.90;;;;;;4069513;29;20048;-61
2023/08/13 04:22:23;;;;;;;14.25;3.30;;;19.30;99.90;;;;;;4069614;29;20411;-61
2023/08/13 04:24:25;;;;;;;17.98;3.72;;;19.20;99.90;;;;;;4069510;29;20418;-60
2023/08/13 04:26:28;;;;;;;15.98;3.92;;;19.30;99.90;;;;;;4068713;29;20092;-60
2023/08/13 04:28:30;;;;;;;16.45;4.25;;;19.30;99.90;;;;;;4069656;29;20044;-60
2023/08/13 04:30:32;;;;;;;13.25;3.70;;;19.30;99.90;;;;;;4068984;29;20141;-59
2023/08/13 04:32:37;;;;;;;15.05;3.35;;;19.30;99.90;;;;;;4069220;29;20104;-61
2023/08/13 04:34:39;;;;;;;;;;;19.30;99.90;;;;;;4069645;29;20064;-61
2023/08/13 04:36:41;;;;;;;14.55;3.50;;;19.30;99.90;;;;;;4067831;29;20013;-60
2023/08/13 04:38:45;;;;;;;16.38;3.92;;;19.20;99.90;;;;;;4069200;29;20052;-60
2023/08/13 04:40:47;;;;;;;14.18;3.28;;;19.20;99.90;;;;;;4069466;29;20111;-60
2023/08/13 04:42:49;;;;;;;15.50;4.38;;;19.20;99.90;;;;;;4069327;29;20418;-60
2023/08/13 04:44:51;;;;;;;18.65;4.22;;;19.20;99.90;;;;;;4068698;29;20478;-59
2023/08/13 04:46:54;;;;;;;13.18;4.45;;;19.20;99.90;;;;;;4068578;29;20052;-60
2023/08/13 04:48:56;;;;;;;13.57;3.97;;;19.20;99.90;;;;;;4083859;29;20469;-60
2023/08/13 04:50:58;;;;;;;20.17;3.33;;;19.20;99.90;;;;;;4069355;29;20056;-60
2023/08/13 04:53:00;;;;;;;14.32;3.42;;;19.20;99.90;;;;;;4069259;29;20123;-59
2023/08/13 04:55:04;;;;;;;15.10;3.47;;;19.20;99.90;;;;;;4068608;29;20052;-60
2023/08/13 04:57:06;;;;;;;12.57;3.07;;;19.20;99.90;;;;;;4069614;29;20066;-60
2023/08/13 04:59:08;;;;;;;13.82;3.50;;;19.20;99.90;;;;;;4069298;29;20127;-59
2023/08/13 05:01:11;;;;;;;18.13;3.83;;;19.20;99.90;;;;;;4068867;29;20048;-59
2023/08/13 05:03:13;;;;;;;13.52;3.50;;;19.20;99.90;;;;;;4067409;29;20477;-60
2023/08/13 05:05:15;;;;;;;13.50;3.72;;;19.20;99.90;;;;;;4068215;29;20143;-60
2023/08/13 05:07:17;;;;;;;18.25;4.28;;;19.20;99.90;;;;;;4069049;29;20191;-59
2023/08/13 05:09:19;;;;;;;15.15;3.50;;;19.20;99.90;;;;;;4068978;29;20503;-60
2023/08/13 05:11:22;;;;;;;15.23;3.58;;;19.20;99.90;;;;;;4068647;29;20048;-59
2023/08/13 05:13:25;;;;;;;12.35;3.38;;;19.30;99.90;;;;;;4068883;29;20131;-59
2023/08/13 05:15:27;;;;;;;17.05;3.25;;;19.20;99.90;;;;;;4067876;29;20056;-60
2023/08/13 05:17:29;;;;;;;14.50;4.07;;;19.30;99.90;;;;;;4068833;29;20050;-60
2023/08/13 05:19:31;;;;;;;14.27;3.38;;;19.30;99.90;;;;;;4069091;29;20068;-59
2023/08/13 05:21:33;;;;;;;18.98;3.70;;;19.30;99.90;;;;;;4068682;29;20131;-60
2023/08/13 05:23:36;;;;;;;13.93;3.22;;;19.20;99.90;;;;;;4068814;29;20104;-60
2023/08/13 05:25:38;;;;;;;13.07;3.47;;;19.30;99.90;;;;;;4068151;29;20075;-62
2023/08/13 05:27:42;;;;;;;16.27;3.63;;;19.20;99.90;;;;;;4068491;29;20048;-60
2023/08/13 05:29:44;;;;;;;15.20;3.65;;;19.20;99.90;;;;;;4068003;29;20044;-60
2023/08/13 05:31:46;;;;;;;13.90;3.15;;;19.20;99.90;;;;;;4068648;29;20100;-60
2023/08/13 05:33:48;;;;;;;12.30;3.40;;;19.20;99.90;;;;;;4068404;29;20475;-60
2023/08/13 05:35:50;;;;;;;14.63;2.83;;;19.20;99.90;;;;;;4067597;29;20127;-62
2023/08/13 05:37:52;;;;;;;14.80;3.80;;;19.30;99.90;;;;;;4068608;29;20055;-61
2023/08/13 05:39:54;;;;;;;14.75;3.40;;;19.30;99.90;;;;;;4068629;29;20058;-60
2023/08/13 05:41:57;;;;;;;13.65;3.70;;;19.20;99.90;;;;;;4068489;29;20464;-60
2023/08/13 05:44:00;;;;;;;15.00;3.60;;;19.20;99.90;;;;;;4068080;29;20074;-61
2023/08/13 05:46:02;;;;;;;15.60;4.38;;;19.30;99.90;;;;;;4067625;29;20056;-60
2023/08/13 05:48:06;;;;;;;21.15;3.88;;;19.30;99.90;;;;;;4068388;29;20058;-60
2023/08/13 05:50:08;;;;;;;16.15;4.03;;;19.40;99.90;;;;;;4068614;29;20071;-61
2023/08/13 05:52:10;;;;;;;15.07;3.85;;;19.30;99.90;;;;;;4068270;29;20135;-60
2023/08/13 05:54:13;;;;;;;11.20;3.55;;;19.30;99.90;;;;;;4067553;29;20052;-58
2023/08/13 05:56:15;;;;;;;16.10;3.53;;;19.40;99.90;;;;;;4067600;29;20048;-60
2023/08/13 05:58:18;;;;;;;16.65;3.38;;;19.40;99.90;;;;;;4068169;29;20056;-59
2023/08/13 06:00:21;;;;;;;14.30;3.80;;;19.50;99.90;;;;;;4068063;29;20052;-59
2023/08/13 06:02:24;;;;;;;15.43;3.67;;;19.50;99.90;;;;;;4068212;29;20487;-60
2023/08/13 06:04:26;;;;;;;11.90;3.53;;;19.50;99.90;;;;;;4068176;29;20140;-59
2023/08/13 06:06:28;;;;;;;16.65;3.17;;;19.50;99.90;;;;;;4066462;29;20064;-61
2023/08/13 06:08:30;;;;;;;12.05;3.08;;;19.50;99.90;;;;;;4068160;29;20119;-61
2023/08/13 06:10:32;;;;;;;12.23;3.70;;;19.60;99.90;;;;;;4067865;29;20048;-62
2023/08/13 06:12:34;;;;;;;12.75;3.53;;;19.60;99.90;;;;;;4067728;29;20458;-58
2023/08/13 06:14:36;;;;;;;15.02;3.30;;;19.60;99.90;;;;;;4067457;29;20072;-59
2023/08/13 06:16:40;;;;;;;17.85;3.40;;;19.70;99.90;;;;;;4067329;29;20051;-61
2023/08/13 06:18:42;;;;;;;15.05;4.18;;;19.70;99.90;;;;;;4068120;29;20474;-61
2023/08/13 06:20:44;;;;;;;15.43;4.38;;;19.70;99.90;;;;;;4068167;29;20409;-61
2023/08/13 06:22:46;;;;;;;15.57;4.18;;;19.80;99.90;;;;;;4068472;29;20489;-59
2023/08/13 06:24:49;;;;;;;13.15;3.58;;;19.90;99.90;;;;;;4068108;29;20048;-61
2023/08/13 06:26:51;;;;;;;18.73;4.07;;;19.90;99.90;;;;;;4067179;29;20060;-59
2023/08/13 06:28:53;;;;;;;12.90;3.50;;;19.90;99.90;;;;;;4068079;29;20055;-60
2023/08/13 06:30:56;;;;;;;12.63;3.65;;;19.90;99.90;;;;;;4068021;29;20052;-60
2023/08/13 06:32:59;;;;;;;13.73;4.03;;;20.00;99.90;;;;;;4068204;29;20392;-60
2023/08/13 06:35:01;;;;;;;12.63;3.60;;;20.10;99.90;;;;;;4068077;29;20044;-60
2023/08/13 06:37:04;;;;;;;15.68;3.85;;;20.10;99.90;;;;;;4067808;29;20134;-60
2023/08/13 06:39:06;;;;;;;15.25;3.90;;;20.10;99.90;;;;;;4068118;29;20052;-60
2023/08/13 06:41:08;;;;;;;16.90;3.90;;;20.10;99.90;;;;;;4067401;29;20085;-60
2023/08/13 06:43:11;;;;;;;15.95;4.05;;;20.10;99.90;;;;;;4067821;29;20060;-59
2023/08/13 06:45:13;;;;;;;12.25;3.60;;;20.10;99.90;;;;;;4067593;29;20076;-62
2023/08/13 06:47:15;;;;;;;13.68;3.75;;;20.30;99.90;;;;;;4068209;29;20056;-62
2023/08/13 06:49:19;;;;;;;17.48;4.20;;;20.30;99.90;;;;;;4068264;29;20051;-59
2023/08/13 06:51:21;;;;;;;14.73;3.45;;;20.40;99.90;;;;;;4067970;29;20409;-62
2023/08/13 06:53:23;;;;;;;17.08;3.72;;;20.50;99.90;;;;;;4068296;29;20115;-59
2023/08/13 06:55:30;;;;;;;11.55;3.38;;;20.50;99.90;;;;;;4067059;29;20044;-60
2023/08/13 06:57:32;;;;;;;16.52;4.25;;;20.50;99.90;;;;;;4068204;29;20055;-60
2023/08/13 06:59:34;;;;;;;12.90;3.13;;;20.50;99.90;;;;;;4068495;29;20048;-61
2023/08/13 07:01:37;;;;;;;12.75;3.13;;;20.50;99.90;;;;;;4068180;29;20057;-60
2023/08/13 07:03:41;;;;;;;12.65;2.72;;;20.50;99.90;;;;;;4068450;29;20048;-62
2023/08/13 07:05:45;;;;;;;8.63;2.75;;;20.50;99.90;;;;;;4067609;29;20463;-61
2023/08/13 07:07:49;;;;;;;13.52;3.33;;;20.50;99.90;;;;;;4067966;29;20100;-62
2023/08/13 07:09:51;;;;;;;14.52;3.95;;;20.50;99.90;;;;;;4067806;29;20052;-60
2023/08/13 07:11:53;;;;;;;11.77;3.53;;;20.50;99.90;;;;;;4067359;29;20161;-61
2023/08/13 07:13:57;;;;;;;17.00;4.18;;;20.50;99.90;;;;;;4067504;29;20044;-62
2023/08/13 07:15:59;;;;;;;10.77;3.20;;;20.50;99.90;;;;;;4067126;29;20052;-62
2023/08/13 07:18:01;;;;;;;10.60;3.25;;;20.50;99.90;;;;;;4067441;29;20066;-62
2023/08/13 07:20:08;;;;;;;13.65;2.97;;;20.60;99.90;;;;;;4067484;29;20048;-62
2023/08/13 07:22:13;;;;;;;9.20;2.70;;;20.60;99.90;;;;;;4067747;29;20052;-62
2023/08/13 07:24:15;;;;;;;;;;;20.70;99.90;;;;;;4068078;29;20112;-62
2023/08/13 07:26:17;;;;;;;10.40;3.05;;;20.80;99.90;;;;;;4066733;29;20385;-61
2023/08/13 07:28:19;;;;;;;10.55;2.88;;;20.70;99.90;;;;;;4070043;29;20125;-62
2023/08/13 07:30:21;;;;;;;12.13;3.05;;;20.80;99.90;;;;;;4070481;29;20135;-62
2023/08/13 07:32:24;;;;;;;12.95;3.03;;;20.90;99.90;;;;;;4070432;29;20052;-61
2023/08/13 07:34:26;;;;;;;17.65;3.10;;;21.00;99.90;;;;;;4070444;29;20509;-62
2023/08/13 07:36:28;;;;;;;12.95;2.90;;;21.00;99.90;;;;;;4070055;29;20454;-62
2023/08/13 07:38:33;;;;;;;11.05;3.05;;;21.10;99.80;;;;;;4068960;29;20550;-62
2023/08/13 07:40:35;;;;;;;12.85;2.95;;;21.20;99.90;;;;;;4070094;29;20440;-59
2023/08/13 07:42:37;;;;;;;9.88;2.50;;;21.20;99.50;;;;;;4070209;29;20184;-60
2023/08/13 07:44:43;;;;;;;14.07;2.75;;;21.20;99.30;;;;;;4070225;29;20435;-61
2023/08/13 07:46:45;;;;;;;12.15;3.22;;;21.30;99.60;;;;;;4069482;29;20067;-63
2023/08/13 07:48:47;;;;;;;13.82;2.97;;;21.40;99.40;;;;;;4070093;29;20135;-60
2023/08/13 07:50:50;;;;;;;14.60;3.05;;;21.40;99.20;;;;;;4069969;29;20054;-60
2023/08/13 07:52:53;;;;;;;11.70;3.50;;;21.50;99.20;;;;;;4070255;29;20470;-60
2023/08/13 07:54:56;;;;;;;14.18;3.67;;;21.60;98.90;;;;;;4069663;29;20411;-60
2023/08/13 07:56:58;;;;;;;17.67;3.70;;;21.70;99.10;;;;;;4069183;29;20056;-61
2023/08/13 07:59:00;;;;;;;16.15;3.30;;;21.80;99.00;;;;;;4070252;29;20054;-60
2023/08/13 08:01:02;;;;;;;14.32;3.45;;;21.80;99.00;;;;;;4070250;29;20143;-60
2023/08/13 08:03:04;;;;;;;16.25;3.63;;;21.80;98.40;;;;;;4070109;29;20041;-61
2023/08/13 08:05:07;;;;;;;14.80;3.38;;;21.80;98.40;;;;;;4070105;29;20398;-63
2023/08/13 08:07:09;;;;;;;14.23;3.13;;;21.90;98.20;;;;;;4068069;29;20052;-63
2023/08/13 08:09:11;;;;;;;8.73;2.45;;;21.90;98.30;;;;;;4070005;29;20056;-63
2023/08/13 08:11:14;;;;;;;8.35;2.53;;;22.00;98.20;;;;;;4069760;29;20139;-61
2023/08/13 08:13:17;;;;;;;11.13;3.20;;;22.10;97.90;;;;;;4069568;29;20048;-61
2023/08/13 08:15:21;;;;;;;12.88;2.47;;;22.20;97.40;;;;;;4069744;29;20087;-60
2023/08/13 08:17:23;;;;;;;14.48;3.35;;;22.10;97.60;;;;;;4069559;29;20491;-60
2023/08/13 08:19:25;;;;;;;12.32;2.70;;;22.20;97.80;;;;;;4070158;29;20063;-61
2023/08/13 08:21:27;;;;;;;12.43;3.30;;;22.30;97.70;;;;;;4069700;29;20048;-61
2023/08/13 08:23:29;;;;;;;9.65;2.63;;;22.20;97.30;;;;;;4069798;29;20080;-60
2023/08/13 08:25:31;;;;;;;13.27;3.10;;;22.40;97.20;;;;;;4070253;29;20056;-62
2023/08/13 08:27:35;;;;;;;11.93;3.15;;;22.40;97.00;;;;;;4069623;29;20051;-61
2023/08/13 08:29:37;;;;;;;8.68;2.28;;;22.40;97.40;;;;;;4070067;29;20052;-61
2023/08/13 08:31:39;;;;;;;11.32;3.15;;;22.40;97.00;;;;;;4069945;29;20342;-60
2023/08/13 08:33:42;;;;;;;14.13;2.97;;;22.30;96.90;;;;;;4069803;29;20040;-60
2023/08/13 08:35:44;;;;;;;12.65;2.42;;;22.40;96.90;;;;;;4069075;29;20120;-61
2023/08/13 08:37:46;;;;;;;9.13;2.35;;;22.30;96.90;;;;;;4068602;29;20123;-60
2023/08/13 08:39:48;;;;;;;12.80;2.80;;;22.40;97.10;;;;;;4068178;29;20071;-60
2023/08/13 08:41:55;;;;;;;13.43;2.78;;;22.40;97.10;;;;;;4069489;29;20048;-62
2023/08/13 08:43:58;;;;;;;15.50;3.28;;;22.50;97.10;;;;;;4069490;29;20064;-63
2023/08/13 08:46:04;;;;;;;10.90;2.92;;;22.50;97.30;;;;;;4069808;29;20052;-62
2023/08/13 08:48:07;;;;;;;10.30;2.28;;;22.60;96.90;;;;;;4070645;29;20048;-63
2023/08/13 08:50:12;;;;;;;15.48;3.25;;;22.50;96.50;;;;;;4071598;29;20143;-62
2023/08/13 08:52:16;;;;;;;9.38;2.20;;;22.50;96.40;;;;;;4070451;29;20059;-65
2023/08/13 08:54:19;;;;;;;8.05;2.30;;;22.60;96.50;;;;;;4069999;29;20056;-62
2023/08/13 08:56:21;;;;;;;11.52;2.67;;;22.60;96.60;;;;;;4069112;29;20052;-62
2023/08/13 08:58:23;;;;;;;9.55;2.10;;;22.50;96.30;;;;;;4069263;29;20142;-63
2023/08/13 09:00:27;;;;;;;12.98;2.72;;;22.60;96.10;;;;;;4069124;29;20123;-62
2023/08/13 09:02:29;;;;;;;11.45;2.67;;;22.60;96.10;;;;;;4068785;29;20048;-62
2023/08/13 09:04:31;;;;;;;11.75;2.33;;;22.60;96.20;;;;;;4069024;29;20055;-60
2023/08/13 09:06:52;;;;;;;12.13;2.35;;;22.60;96.10;;;;;;4067169;29;20116;-61
2023/08/13 09:08:54;;;;;;;11.70;2.78;;;22.50;95.90;;;;;;4069023;29;20048;-60
2023/08/13 09:10:57;;;;;;;9.48;2.88;;;22.50;96.30;;;;;;4069129;29;20056;-61
2023/08/13 09:12:59;;;;;;;7.65;2.33;;;22.60;96.20;;;;;;4068950;29;20052;-62
2023/08/13 09:15:06;;;;;;;7.03;2.42;;;22.60;95.80;;;;;;4068739;29;20048;-62
2023/08/13 09:17:11;;;;;;;8.57;2.10;;;22.60;95.60;;;;;;4068375;29;20145;-63
2023/08/13 09:19:16;;;;;;;5.55;1.80;;;22.60;95.40;;;;;;4068870;29;20136;-63
2023/08/13 09:21:23;;;;;;;7.88;2.05;;;22.60;95.40;;;;;;4068293;29;20138;-63
2023/08/13 09:23:25;;;;;;;8.25;2.40;;;22.70;95.50;;;;;;4069079;29;20059;-60
2023/08/13 09:25:28;;;;;;;8.20;2.50;;;22.70;95.40;;;;;;4068782;29;20076;-61
2023/08/13 09:27:30;;;;;;;6.38;1.80;;;22.80;95.30;;;;;;4068999;29;20078;-62
2023/08/13 09:29:38;;;;;;;5.97;1.63;;;22.90;95.20;;;;;;4069158;29;20052;-62
2023/08/13 09:31:45;;;;;;;5.95;2.15;;;23.00;95.10;;;;;;4069471;29;20082;-62
2023/08/13 09:33:48;;;;;;;4.47;1.60;;;23.10;95.10;;;;;;4070164;29;20072;-61
2023/08/13 09:35:51;;;;;;;6.80;2.13;;;23.10;94.90;;;;;;4068833;29;20060;-61
2023/08/13 09:37:53;;;;;;;8.48;2.10;;;23.10;94.60;;;;;;4069548;29;20539;-64
2023/08/13 09:39:56;;;;;;;9.00;2.35;;;23.20;94.70;;;;;;4070541;29;20052;-61
2023/08/13 09:42:06;;;;;;;10.02;2.08;;;23.20;94.20;;;;;;4070841;29;20208;-60
2023/08/13 09:44:17;;;;;;;7.22;2.60;;;23.10;94.30;;;;;;4070034;29;20139;-64
2023/08/13 09:46:27;;;;;;;9.07;2.00;;;23.10;94.30;;;;;;4070074;29;20048;-61
2023/08/13 09:48:31;;;;;;;6.72;2.03;;;23.10;94.10;;;;;;4069972;29;20413;-62
2023/08/13 09:50:38;;;;;;;9.20;1.85;;;23.10;93.80;;;;;;4068346;29;20076;-62
2023/08/13 09:52:44;;;;;;;7.60;2.33;;;23.30;94.20;;;;;;4068895;29;20056;-61
2023/08/13 09:54:49;;;;;;;7.80;1.80;;;23.20;93.70;;;;;;4069340;29;20048;-61
2023/08/13 09:56:57;;;;;;;9.10;2.47;;;23.30;93.90;;;;;;4068416;29;20121;-62
2023/08/13 09:59:00;;;;;;;8.35;2.28;;;23.40;94.00;;;;;;4069478;29;20044;-62
2023/08/13 10:01:03;;;;;;;7.20;2.00;;;23.20;93.30;;;;;;4069901;29;20059;-61
2023/08/13 10:03:06;;;;;;;10.73;2.40;;;23.20;93.40;;;;;;4068408;29;20410;-61
2023/08/13 10:05:13;;;;;;;9.25;2.45;;;23.30;93.80;;;;;;4068485;29;20044;-61
2023/08/13 10:07:18;;;;;;;9.50;2.30;;;23.40;93.80;;;;;;4066226;29;20076;-61
2023/08/13 10:09:21;;;;;;;10.65;2.55;;;23.50;94.00;;;;;;4068408;29;20059;-63
2023/08/13 10:11:23;;;;;;;10.75;2.63;;;23.50;93.50;;;;;;4068363;29;20119;-63
2023/08/13 10:13:26;;;;;;;6.32;2.08;;;23.50;93.70;;;;;;4068627;29;20363;-63
2023/08/13 10:15:28;;;;;;;9.02;2.55;;;23.50;93.20;;;;;;4068239;29;20055;-63
2023/08/13 10:17:32;;;;;;;10.30;2.17;;;23.40;92.80;;;;;;4067639;29;20052;-63
2023/08/13 10:19:37;;;;;;;5.80;1.52;;;23.60;93.00;;;;;;4068423;29;20052;-62
2023/08/13 10:21:40;;;;;;;11.05;2.25;;;23.50;92.70;;;;;;4068463;29;20463;-62
2023/08/13 10:23:43;;;;;;;10.07;2.40;;;23.50;92.70;;;;;;4069462;29;20156;-62
2023/08/13 10:25:52;;;;;;;8.77;2.78;;;23.50;94.00;;;;;;4069008;29;20048;-62
2023/08/13 10:27:55;;;;;;;9.43;2.28;;;23.50;94.30;;;;;;4069683;29;20055;-63
2023/08/13 10:30:05;;;;;;;10.20;2.25;;;23.40;94.30;;;;;;4069022;29;20055;-63
2023/08/13 10:32:12;;;;;;;12.55;2.30;;;23.20;93.60;;;;;;4069334;29;20096;-63
2023/08/13 10:34:19;;;;;;;7.50;2.15;;;23.10;93.40;;;;;;4068070;29;20048;-63
2023/08/13 10:36:50;;;;;;;7.40;1.85;;;23.10;93.70;;;;;;4067529;29;20173;-63